Time;durP1;ratioP1;P1;durP2;ratioP2;P2;SDS_P1;SDS_P2;PMS_P1;PMS_P2;Temp;Humidity;BMP_temperature;BMP_pressure;BME280_temperature;BME280_humidity;BME280_pressure;Samples;Min_cycle;Max_cycle;Signal;HPM_P1;HPM_P2
2021/03/21 00:02:05;;;;;;;66.78;23.08;;;;;;;4.49;100.00;102579.44;5138456;28;20476;-68
2021/03/21 00:04:35;;;;;;;71.88;22.63;;;;;;;4.48;100.00;102565.28;5150868;28;20035;-69
2021/03/21 00:07:06;;;;;;;71.55;23.40;;;;;;;4.43;100.00;102559.38;5139010;28;20026;-69
2021/03/21 00:09:37;;;;;;;73.22;24.80;;;;;;;4.43;100.00;102566.47;5147158;28;20083;-69
2021/03/21 00:12:08;;;;;;;73.55;23.98;;;;;;;4.41;100.00;102567.41;5156907;28;20026;-69
2021/03/21 00:14:38;;;;;;;68.22;22.15;;;;;;;4.45;100.00;102568.09;5157577;28;20034;-70
2021/03/21 00:17:09;;;;;;;58.80;21.67;;;;;;;4.48;100.00;102565.28;5156289;28;20097;-68
2021/03/21 00:19:39;;;;;;;69.68;22.73;;;;;;;4.47;100.00;102565.34;5157870;28;20030;-68
2021/03/21 00:22:10;;;;;;;63.05;22.52;;;;;;;4.47;100.00;102563.56;5156905;28;20038;-68
2021/03/21 00:24:40;;;;;;;71.50;23.95;;;;;;;4.45;100.00;102565.44;5157520;28;20026;-68
2021/03/21 00:27:10;;;;;;;61.47;21.23;;;;;;;4.45;100.00;102569.91;5157243;28;20027;-70
2021/03/21 00:29:43;;;;;;;65.78;22.58;;;;;;;4.48;100.00;102577.72;5156234;28;20022;-69
2021/03/21 00:32:13;;;;;;;64.93;21.77;;;;;;;4.51;100.00;102569.56;5157328;28;20058;-68
2021/03/21 00:34:43;;;;;;;63.70;22.45;;;;;;;4.51;100.00;102574.88;5157770;28;20074;-69
2021/03/21 00:37:14;;;;;;;53.30;20.95;;;;;;;4.55;100.00;102577.28;5160843;28;20612;-71
2021/03/21 00:39:44;;;;;;;56.58;21.48;;;;;;;4.56;100.00;102572.81;5160977;28;20484;-71
2021/03/21 00:42:15;;;;;;;53.85;21.60;;;;;;;4.52;100.00;102568.59;5159586;28;20505;-72
2021/03/21 00:44:45;;;;;;;56.95;20.77;;;;;;;4.50;100.00;102568.69;5160790;28;20558;-69
2021/03/21 00:47:16;;;;;;;53.47;21.77;;;;;;;4.50;100.00;102570.50;5160756;28;20487;-69
2021/03/21 00:49:46;;;;;;;56.17;21.90;;;;;;;4.48;100.00;102565.28;5160615;28;20555;-68
2021/03/21 00:52:17;;;;;;;57.42;21.98;;;;;;;4.51;100.00;102561.59;5160536;28;20113;-70
2021/03/21 00:54:47;;;;;;;51.00;20.83;;;;;;;4.55;100.00;102563.13;5160104;28;20027;-69
2021/03/21 00:57:17;;;;;;;49.63;20.55;;;;;;;4.61;100.00;102560.13;5160336;28;20033;-69
2021/03/21 00:59:48;;;;;;;57.13;21.55;;;;;;;4.56;100.00;102556.88;5160866;28;20441;-68
2021/03/21 01:02:18;;;;;;;53.17;22.27;;;;;;;4.60;100.00;102563.72;5159699;28;20066;-68
2021/03/21 01:04:49;;;;;;;56.63;21.65;;;;;;;4.58;100.00;102555.84;5159430;28;20030;-68
2021/03/21 01:07:20;;;;;;;49.75;21.63;;;;;;;4.66;100.00;102552.75;5159269;28;20046;-69
2021/03/21 01:09:51;;;;;;;50.95;21.02;;;;;;;4.61;100.00;102547.69;5215874;28;20028;-68
2021/03/21 01:12:22;;;;;;;57.65;21.75;;;;;;;4.59;100.00;102540.75;5171015;28;20026;-69
2021/03/21 01:14:52;;;;;;;57.53;23.23;;;;;;;4.57;100.00;102529.38;5160421;28;20088;-69
2021/03/21 01:17:22;;;;;;;64.80;26.13;;;;;;;4.55;100.00;102528.56;5158367;28;20478;-68
2021/03/21 01:19:53;;;;;;;53.38;22.23;;;;;;;4.56;100.00;102517.00;5159746;28;20538;-69
2021/03/21 01:22:23;;;;;;;61.55;22.50;;;;;;;4.58;100.00;102520.44;5159913;28;20510;-69
2021/03/21 01:24:54;;;;;;;51.30;20.90;;;;;;;4.55;100.00;102520.59;5160135;28;20399;-69
2021/03/21 01:27:24;;;;;;;56.67;22.20;;;;;;;4.55;100.00;102517.94;5160043;28;20440;-69
2021/03/21 01:29:55;;;;;;;56.60;22.05;;;;;;;4.57;100.00;102519.59;5159035;28;20053;-68
2021/03/21 01:32:25;;;;;;;54.15;20.65;;;;;;;4.57;100.00;102526.72;5159604;28;20022;-69
2021/03/21 01:34:55;;;;;;;57.58;21.52;;;;;;;4.59;100.00;102514.19;5160080;28;20026;-69
2021/03/21 01:37:26;;;;;;;61.17;24.00;;;;;;;4.61;100.00;102506.97;5159823;28;20071;-69
2021/03/21 01:39:56;;;;;;;49.83;21.13;;;;;;;4.60;100.00;102511.41;5160026;28;20031;-68
2021/03/21 01:42:35;;;;;;;57.10;20.80;;;;;;;4.59;100.00;102503.53;5158916;28;20083;-69
2021/03/21 01:45:28;;;;;;;50.30;20.58;;;;;;;4.60;100.00;102503.44;5147933;28;20031;-68
2021/03/21 01:48:17;;;;;;;51.53;21.00;;;;;;;4.62;100.00;102495.41;5158799;28;20162;-69
2021/03/21 01:50:55;;;;;;;55.38;20.23;;;;;;;4.63;100.00;102490.00;5158639;28;20030;-69
2021/03/21 01:53:29;;;;;;;57.67;21.65;;;;;;;4.66;100.00;102491.59;5159401;28;20135;-68
2021/03/21 01:56:00;;;;;;;52.80;21.70;;;;;;;4.68;100.00;102487.06;5159116;28;20045;-69
2021/03/21 01:58:33;;;;;;;50.55;19.92;;;;;;;4.72;100.00;102472.66;5159079;28;20038;-69
2021/03/21 02:01:13;;;;;;;57.88;21.02;;;;;;;4.70;100.00;102469.22;5158646;28;20397;-69
2021/03/21 02:03:44;;;;;;;50.97;20.08;;;;;;;4.67;100.00;102469.41;5159744;28;20026;-68
2021/03/21 02:06:32;;;;;;;57.60;19.95;;;;;;;4.71;100.00;102470.94;5160067;28;20033;-68
2021/03/21 02:09:26;;;;;;;54.45;21.13;;;;;;;4.70;100.00;102479.84;5181265;28;20085;-69
2021/03/21 02:12:00;;;;;;;56.35;20.23;;;;;;;4.67;100.00;102472.06;5187491;28;20026;-69
2021/03/21 02:14:54;;;;;;;57.53;20.80;;;;;;;4.67;100.00;102464.94;5160553;28;20046;-69
2021/03/21 02:17:44;;;;;;;52.75;19.35;;;;;;;4.70;100.00;102457.72;5159499;28;20025;-68
2021/03/21 02:20:32;;;;;;;53.35;20.50;;;;;;;4.71;100.00;102454.13;5158812;28;20091;-68
2021/03/21 02:23:34;;;;;;;57.03;21.05;;;;;;;4.76;100.00;102460.88;5159618;28;20030;-69
2021/03/21 02:26:41;;;;;;;52.72;19.13;;;;;;;4.76;100.00;102457.38;5159678;28;20030;-69
2021/03/21 02:29:22;;;;;;;;;;;;;;;4.77;100.00;102451.97;5149322;28;20031;-69
2021/03/21 02:32:04;;;;;;;50.22;19.98;;;;;;;4.78;100.00;102459.00;5158868;28;19916;-68
2021/03/21 02:34:40;;;;;;;49.58;20.45;;;;;;;4.75;100.00;102456.50;5159309;28;20076;-68
2021/03/21 02:37:21;;;;;;;54.78;21.13;;;;;;;4.79;100.00;102458.06;5159530;28;20022;-67
2021/03/21 02:40:08;;;;;;;55.97;20.90;;;;;;;4.75;100.00;102442.38;5159466;28;20075;-68
2021/03/21 02:42:42;;;;;;;;;;;;;;;4.73;100.00;102436.28;5159767;28;20023;-69
2021/03/21 02:45:18;;;;;;;56.70;20.35;;;;;;;4.76;100.00;102434.28;5159148;28;20382;-68
2021/03/21 02:48:14;;;;;;;55.25;19.92;;;;;;;4.78;100.00;102420.94;5159232;28;20030;-68
2021/03/21 02:50:51;;;;;;;57.53;20.65;;;;;;;4.83;100.00;102411.72;5159036;28;20022;-68
2021/03/21 02:53:38;;;;;;;58.00;22.00;;;;;;;4.82;100.00;102404.72;5148425;28;20033;-68
2021/03/21 02:56:14;;;;;;;60.33;22.70;;;;;;;4.79;100.00;102409.34;5159747;28;20479;-68
2021/03/21 02:58:52;;;;;;;66.75;23.88;;;;;;;4.76;100.00;102396.22;5159202;28;20487;-68
2021/03/21 03:01:27;;;;;;;64.20;20.95;;;;;;;4.79;100.00;102380.94;5146225;28;20077;-68
2021/03/21 03:04:00;;;;;;;;;;;;;;;4.83;100.00;102382.47;5158972;28;20023;-69
2021/03/21 03:06:36;;;;;;;58.78;20.90;;;;;;;4.82;100.00;102378.13;5157867;28;19918;-69
2021/03/21 03:09:31;;;;;;;61.05;21.77;;;;;;;4.83;100.00;102379.81;5158465;28;20018;-69
2021/03/21 03:12:15;;;;;;;63.00;23.23;;;;;;;4.80;100.00;102382.66;5154641;28;20022;-69
2021/03/21 03:14:47;;;;;;;67.68;23.33;;;;;;;4.78;100.00;102400.50;5157864;28;20035;-69
2021/03/21 03:17:32;;;;;;;66.07;22.77;;;;;;;4.82;100.00;102386.09;5158185;28;20021;-69
2021/03/21 03:20:13;;;;;;;62.35;23.50;;;;;;;4.82;100.00;102387.88;5158357;28;20023;-68
2021/03/21 03:23:06;;;;;;;68.18;25.27;;;;;;;4.83;100.00;102384.28;5158180;28;20508;-69
2021/03/21 03:25:48;;;;;;;68.72;23.63;;;;;;;4.81;100.00;102384.34;5158451;28;20513;-68
2021/03/21 03:28:34;;;;;;;70.22;23.73;;;;;;;4.84;100.00;102384.19;5158173;28;20027;-68
2021/03/21 03:31:13;;;;;;;84.03;25.50;;;;;;;4.88;100.00;102385.72;5157788;28;20042;-69
2021/03/21 03:33:44;;;;;;;72.47;24.35;;;;;;;4.87;100.00;102375.16;5158418;28;20022;-68
2021/03/21 03:36:16;;;;;;;65.88;25.52;;;;;;;4.92;100.00;102381.94;5158653;28;20367;-69
2021/03/21 03:38:49;;;;;;;71.55;24.70;;;;;;;4.90;100.00;102381.16;5158552;28;20029;-69
2021/03/21 03:41:27;;;;;;;70.82;23.77;;;;;;;4.89;100.00;102387.41;5157216;28;20033;-69
2021/03/21 03:44:07;;;;;;;81.93;25.30;;;;;;;4.94;100.00;102387.16;5158253;28;20541;-69
2021/03/21 03:47:00;;;;;;;72.55;24.65;;;;;;;4.93;100.00;102380.13;5158323;28;20069;-69
2021/03/21 03:49:57;;;;;;;71.60;24.30;;;;;;;4.98;100.00;102383.38;5157919;28;20277;-69
2021/03/21 03:52:29;;;;;;;68.80;26.48;;;;;;;5.02;100.00;102378.69;5157713;28;20125;-69
2021/03/21 03:55:04;;;;;;;73.68;24.95;;;;;;;5.01;100.00;102377.00;5158386;28;20065;-69
2021/03/21 03:57:52;;;;;;;67.55;24.67;;;;;;;4.98;100.00;102370.06;5158074;28;20026;-69
2021/03/21 04:00:30;;;;;;;74.18;25.23;;;;;;;4.99;100.00;102353.16;5157716;28;20034;-69
2021/03/21 04:03:29;;;;;;;73.13;25.00;;;;;;;5.01;100.00;102358.38;5158007;28;20053;-69
2021/03/21 04:06:04;;;;;;;79.70;25.70;;;;;;;5.00;100.00;102356.66;5157996;28;20038;-69
2021/03/21 04:08:57;;;;;;;82.45;25.60;;;;;;;5.02;100.00;102362.72;5159109;28;20056;-69
2021/03/21 04:11:32;;;;;;;73.20;25.27;;;;;;;5.02;100.00;102360.06;5206196;28;20034;-69
2021/03/21 04:14:07;;;;;;;78.40;24.80;;;;;;;5.05;100.00;102347.44;5157748;28;20087;-68
2021/03/21 04:16:45;;;;;;;84.43;26.65;;;;;;;5.03;100.00;102343.19;5157621;28;20102;-69
2021/03/21 04:19:19;;;;;;;86.25;27.17;;;;;;;5.02;100.00;102355.63;5145859;28;20026;-69
2021/03/21 04:22:00;;;;;;;89.05;27.88;;;;;;;5.01;100.00;102361.88;5157378;28;20023;-69
2021/03/21 04:24:37;;;;;;;94.47;27.55;;;;;;;5.02;100.00;102362.72;5158365;28;20058;-69
2021/03/21 04:27:14;;;;;;;89.65;27.35;;;;;;;5.02;100.00;102355.63;5157422;28;20097;-69
2021/03/21 04:30:00;;;;;;;86.43;28.65;;;;;;;5.01;100.00;102367.19;5157361;28;20040;-69
2021/03/21 04:32:37;;;;;;;88.97;27.35;;;;;;;5.04;100.00;102375.00;5158077;28;20371;-68
2021/03/21 04:35:12;;;;;;;83.50;26.73;;;;;;;5.06;100.00;102377.56;5157762;28;20473;-69
2021/03/21 04:37:48;;;;;;;90.43;29.08;;;;;;;5.07;100.00;102388.13;5156978;28;20623;-69
2021/03/21 04:40:19;;;;;;;;;;;;;;;5.06;100.00;102373.09;5145120;28;20026;-69
2021/03/21 04:42:55;;;;;;;99.47;28.45;;;;;;;5.09;100.00;102374.72;5157738;28;20278;-69
2021/03/21 04:45:31;;;;;;;102.53;30.42;;;;;;;5.10;100.00;102377.28;5157717;28;20598;-69
2021/03/21 04:48:05;;;;;;;118.70;31.85;;;;;;;5.13;100.00;102376.25;5156829;28;20023;-69
2021/03/21 04:50:36;;;;;;;107.25;35.63;;;;;;;5.12;100.00;102380.72;5157714;28;20026;-69
2021/03/21 04:53:17;;;;;;;119.30;38.03;;;;;;;5.16;100.00;102370.72;5157403;28;20038;-69
2021/03/21 04:56:01;;;;;;;132.88;36.10;;;;;;;5.22;100.00;102372.16;5157640;28;20117;-69
2021/03/21 04:58:36;;;;;;;130.45;34.05;;;;;;;5.28;100.00;102370.00;5157487;28;20069;-69
2021/03/21 05:01:12;;;;;;;123.15;35.17;;;;;;;5.36;100.00;102367.69;5156830;28;20018;-69
2021/03/21 05:03:48;;;;;;;116.50;35.53;;;;;;;5.31;100.00;102363.63;5145354;28;20080;-69
2021/03/21 05:06:25;;;;;;;126.35;35.45;;;;;;;5.48;100.00;102370.56;5157684;28;20022;-69
2021/03/21 05:09:03;;;;;;;128.73;45.00;;;;;;;5.43;100.00;102368.19;5156474;28;20479;-69
2021/03/21 05:11:38;;;;;;;128.68;41.60;;;;;;;5.42;100.00;102363.78;5157469;28;20034;-69
2021/03/21 05:14:26;;;;;;;118.45;35.53;;;;;;;5.33;100.00;102356.41;5157065;28;20038;-69
2021/03/21 05:17:11;;;;;;;126.68;37.92;;;;;;;5.30;100.00;102364.56;5157319;28;20398;-69
2021/03/21 05:19:51;;;;;;;130.70;42.08;;;;;;;5.39;100.00;102366.66;5157316;28;20022;-69
2021/03/21 05:22:39;;;;;;;134.23;41.47;;;;;;;5.38;100.00;102372.94;5153428;28;20118;-69
2021/03/21 05:25:32;;;;;;;144.13;41.25;;;;;;;5.38;100.00;102387.09;5157236;28;20438;-69
2021/03/21 05:28:10;;;;;;;134.15;41.35;;;;;;;5.39;100.00;102378.16;5160750;28;20027;-69
2021/03/21 05:30:40;;;;;;;144.95;42.03;;;;;;;5.44;100.00;102378.72;5150057;28;20057;-69
2021/03/21 05:33:11;;;;;;;131.55;43.15;;;;;;;5.48;100.00;102374.06;5159723;28;20418;-69
2021/03/21 05:35:42;;;;;;;151.85;52.40;;;;;;;5.51;100.00;102375.69;5159711;28;20033;-69
2021/03/21 05:38:39;;;;;;;163.02;53.55;;;;;;;5.48;100.00;102373.22;5159066;28;20030;-69
2021/03/21 05:41:25;;;;;;;124.57;36.08;;;;;;;5.48;100.00;102370.56;5159117;28;20037;-69
2021/03/21 05:44:14;;;;;;;141.88;44.90;;;;;;;5.46;100.00;102373.31;5159405;28;20500;-69
2021/03/21 05:46:58;;;;;;;278.98;120.75;;;;;;;5.45;100.00;102377.78;5147748;28;20713;-69
2021/03/21 05:49:59;;;;;;;142.07;54.35;;;;;;;5.53;100.00;102373.78;5159315;28;20086;-69
2021/03/21 05:52:52;;;;;;;137.77;44.53;;;;;;;5.51;100.00;102357.91;5158637;28;20038;-69
2021/03/21 05:55:44;;;;;;;135.38;43.63;;;;;;;5.55;100.00;102362.09;5159903;28;20022;-69
2021/03/21 05:58:33;;;;;;;133.38;41.50;;;;;;;5.61;100.00;102371.47;5148979;28;20022;-70
2021/03/21 06:01:23;;;;;;;122.32;42.13;;;;;;;5.62;100.00;102363.41;5158672;28;20113;-70
2021/03/21 06:03:59;;;;;;;130.50;39.47;;;;;;;5.68;100.00;102364.84;5147826;28;20026;-69
2021/03/21 06:06:49;;;;;;;128.50;40.38;;;;;;;5.65;100.00;102365.88;5159871;28;20036;-70
2021/03/21 06:09:40;;;;;;;135.23;38.97;;;;;;;5.68;100.00;102371.00;5158949;28;20097;-69
2021/03/21 06:12:19;;;;;;;130.25;39.47;;;;;;;5.80;100.00;102372.03;5159447;28;20386;-69
2021/03/21 06:15:43;;;;;;;126.95;35.60;;;;;;;5.82;100.00;102374.59;5159825;28;20086;-70
2021/03/21 06:18:36;;;;;;;139.05;39.58;;;;;;;5.90;100.00;102382.94;5146963;28;20038;-70
2021/03/21 06:21:06;;;;;;;117.93;36.55;;;;;;;6.08;100.00;102391.59;5149172;28;20042;-70
2021/03/21 06:23:55;;;;;;;103.60;34.25;;;;;;;6.18;100.00;102398.06;5159476;28;20504;-69
2021/03/21 06:26:38;;;;;;;116.78;35.35;;;;;;;6.22;100.00;102397.75;5159039;28;20044;-69
2021/03/21 06:29:43;;;;;;;102.22;32.45;;;;;;;6.31;100.00;102404.28;5159315;28;20494;-69
2021/03/21 06:32:20;;;;;;;95.35;33.15;;;;;;;6.33;100.00;102407.72;5145934;28;20022;-70
2021/03/21 06:35:04;;;;;;;91.82;32.47;;;;;;;6.34;100.00;102404.09;5159349;28;20424;-69
2021/03/21 06:37:50;;;;;;;109.90;34.42;;;;;;;6.31;100.00;102400.75;5151718;28;20379;-70
2021/03/21 06:40:42;;;;;;;85.13;30.30;;;;;;;6.32;100.00;102403.31;5150211;28;20027;-69
2021/03/21 06:43:49;;;;;;;99.75;31.85;;;;;;;6.36;100.00;102406.63;5157574;28;20109;-70
2021/03/21 06:46:44;;;;;;;90.78;29.23;;;;;;;6.44;100.00;102399.84;5157359;28;20026;-70
2021/03/21 06:49:23;;;;;;;90.47;30.85;;;;;;;6.45;100.00;102398.88;5157113;28;20083;-69
2021/03/21 06:52:06;;;;;;;82.30;28.98;;;;;;;6.49;100.00;102399.56;5157063;28;20030;-70
2021/03/21 06:54:53;;;;;;;84.05;30.55;;;;;;;6.59;100.00;102407.78;5157250;28;20376;-70
2021/03/21 06:57:43;;;;;;;72.80;27.88;;;;;;;6.61;100.00;102405.88;5156989;28;20270;-70
2021/03/21 07:00:18;;;;;;;71.85;25.02;;;;;;;6.65;100.00;102402.91;5157246;28;20030;-69
2021/03/21 07:03:38;;;;;;;52.83;19.57;;;;;;;6.84;100.00;102391.00;5151996;28;20023;-70
2021/03/21 07:06:27;;;;;;;45.13;17.70;;;;;;;6.85;100.00;102409.56;5156898;28;20293;-70
2021/03/21 07:09:08;;;;;;;46.72;18.92;;;;;;;6.96;100.00;102420.34;5156682;28;20566;-70
2021/03/21 07:12:06;;;;;;;47.55;19.20;;;;;;;7.07;100.00;102413.41;5156145;28;20026;-70
2021/03/21 07:14:59;;;;;;;40.90;16.50;;;;;;;7.18;100.00;102414.41;5146937;28;20168;-70
2021/03/21 07:17:47;;;;;;;38.65;13.77;;;;;;;7.04;100.00;102417.16;5156949;28;20106;-70
2021/03/21 07:21:01;;;;;;;35.60;13.90;;;;;;;7.13;100.00;102431.66;5155891;28;20042;-69
2021/03/21 07:23:59;;;;;;;29.40;12.80;;;;;;;7.08;100.00;102439.13;5157405;28;20034;-70
2021/03/21 07:26:35;;;;;;;31.77;11.98;;;;;;;7.04;100.00;102441.19;5156662;28;20437;-70
2021/03/21 07:29:21;;;;;;;31.30;11.48;;;;;;;6.86;100.00;102455.75;5155837;28;20034;-70
2021/03/21 07:32:15;;;;;;;26.75;10.25;;;;;;;6.82;100.00;102452.44;5155760;28;20030;-70
2021/03/21 07:35:04;;;;;;;21.83;8.73;;;;;;;6.79;100.00;102458.00;5156368;28;20026;-70
2021/03/21 07:37:34;;;;;;;16.45;7.68;;;;;;;6.64;100.00;102453.69;5157020;28;20462;-70
2021/03/21 07:40:27;;;;;;;21.58;9.60;;;;;;;6.67;100.00;102464.97;5156351;28;20068;-70
2021/03/21 07:43:12;;;;;;;21.58;9.25;;;;;;;6.67;100.00;102462.31;5156506;28;20549;-70
2021/03/21 07:46:19;;;;;;;27.67;9.83;;;;;;;6.77;100.00;102457.22;5156227;28;20053;-69
2021/03/21 07:49:32;;;;;;;28.27;10.25;;;;;;;6.87;100.00;102444.97;5147998;28;20122;-70
2021/03/21 07:52:04;;;;;;;21.50;8.70;;;;;;;7.04;100.00;102453.69;5145677;28;20386;-70
2021/03/21 07:54:37;;;;;;;20.38;8.70;;;;;;;7.20;100.00;102452.50;5156757;28;20030;-69
2021/03/21 07:57:20;;;;;;;15.10;7.15;;;;;;;7.29;100.00;102456.38;5156411;28;20057;-69
2021/03/21 07:59:51;;;;;;;22.27;7.97;;;;;;;7.31;100.00;102465.13;5143658;28;20034;-69
2021/03/21 08:02:25;;;;;;;14.95;7.43;;;;;;;7.34;100.00;102474.75;5155322;28;20109;-70
2021/03/21 08:05:03;;;;;;;15.63;6.43;;;;;;;7.29;100.00;102477.72;5156592;28;20066;-69
2021/03/21 08:07:37;;;;;;;18.70;7.00;;;;;;;7.25;100.00;102493.09;5156139;28;20023;-70
2021/03/21 08:10:25;;;;;;;15.93;5.40;;;;;;;7.32;100.00;102490.00;5154642;28;20080;-70
2021/03/21 08:13:01;;;;;;;15.30;5.22;;;;;;;7.42;100.00;102483.06;5145517;28;20030;-69
2021/03/21 08:15:34;;;;;;;12.88;4.53;;;;;;;7.41;100.00;102481.38;5156042;28;20494;-69
2021/03/21 08:18:14;;;;;;;13.20;4.68;;;;;;;7.45;100.00;102483.72;5156457;28;20079;-69
2021/03/21 08:20:50;;;;;;;13.18;4.05;;;;;;;7.77;100.00;102483.28;5154493;28;20395;-70
2021/03/21 08:23:29;;;;;;;13.18;3.75;;;;;;;7.70;100.00;102466.84;5156179;28;20034;-70
2021/03/21 08:26:02;;;;;;;9.82;3.15;;;;;;;7.83;100.00;102469.50;5156039;28;20029;-69
2021/03/21 08:28:40;;;;;;;8.38;3.20;;;;;;;7.91;100.00;102479.63;5155448;28;20075;-70
2021/03/21 08:31:12;;;;;;;8.70;3.92;;;;;;;7.79;100.00;102471.53;5154726;28;20019;-69
2021/03/21 08:33:43;;;;;;;9.65;3.10;;;;;;;7.69;100.00;102475.81;5156004;28;20026;-70
2021/03/21 08:36:24;;;;;;;13.45;5.85;;;;;;;7.76;100.00;102478.91;5156273;28;20079;-69
2021/03/21 08:39:03;;;;;;;12.82;4.32;;;;;;;7.74;100.00;102480.84;5155914;28;20022;-69
2021/03/21 08:41:48;;;;;;;10.05;2.50;;;;;;;7.71;100.00;102478.38;5154552;28;20041;-70
2021/03/21 08:44:38;;;;;;;11.23;2.90;;;;;;;7.62;100.00;102484.34;5139105;28;20387;-69
2021/03/21 08:47:19;;;;;;;10.52;2.60;;;;;;;7.70;100.00;102485.53;5145022;28;20033;-70
2021/03/21 08:49:52;;;;;;;11.00;2.22;;;;;;;7.73;100.00;102481.78;5155129;28;20346;-69
2021/03/21 08:52:32;;;;;;;6.25;2.30;;;;;;;7.81;100.00;102471.41;5155640;28;20467;-70
2021/03/21 08:55:04;;;;;;;13.20;1.63;;;;;;;7.89;100.00;102478.91;5143622;28;20030;-69
2021/03/21 08:57:36;;;;;;;15.80;2.90;;;;;;;7.91;100.00;102483.16;5158765;28;20026;-69
2021/03/21 09:00:28;;;;;;;9.95;2.90;;;;;;;8.11;100.00;102483.56;5157821;28;20100;-70
2021/03/21 09:02:59;;;;;;;9.77;2.30;;;;;;;8.10;100.00;102485.38;5158790;28;20019;-70
2021/03/21 09:05:29;;;;;;;7.38;1.60;;;;;;;8.02;100.00;102491.25;5159137;28;20033;-70
2021/03/21 09:08:05;;;;;;;9.25;2.00;;;;;;;7.99;100.00;102496.84;5158956;28;20038;-69
2021/03/21 09:10:49;;;;;;;8.27;1.92;;;;;;;7.93;100.00;102488.38;5157019;28;20407;-69
2021/03/21 09:13:23;;;;;;;7.70;1.50;;;;;;;7.98;100.00;102491.59;5159548;28;20411;-70
2021/03/21 09:15:54;;;;;;;5.70;1.90;;;;;;;7.93;100.00;102499.97;5158566;28;20050;-70
2021/03/21 09:18:29;;;;;;;8.48;1.70;;;;;;;7.95;100.00;102495.34;5158853;28;20462;-70
2021/03/21 09:21:20;;;;;;;6.63;1.95;;;;;;;8.08;100.00;102489.09;5157592;28;20113;-70
2021/03/21 09:24:08;;;;;;;11.10;1.98;;;;;;;8.05;100.00;102492.88;5159096;28;20027;-69
2021/03/21 09:26:44;;;;;;;4.30;1.33;;;;;;;8.17;100.00;102483.09;5158817;28;20026;-69
2021/03/21 09:29:21;;;;;;;10.45;2.72;;;;;;;8.11;100.00;102491.56;5156937;28;20053;-70
2021/03/21 09:31:56;;;;;;;12.77;1.83;;;;;;;8.18;100.00;102487.47;5157401;28;20042;-73
2021/03/21 09:34:32;;;;;;;11.10;2.55;;;;;;;8.14;100.00;102496.72;5159156;28;20498;-69
2021/03/21 09:37:11;;;;;;;14.73;2.30;;;;;;;8.19;100.00;102499.91;5158862;28;20375;-69
2021/03/21 09:39:55;;;;;;;6.50;1.73;;;;;;;8.29;100.00;102504.47;5158525;28;20045;-70
2021/03/21 09:42:26;;;;;;;9.88;1.70;;;;;;;8.40;100.00;102500.19;5158850;28;20421;-69
2021/03/21 09:44:57;;;;;;;22.30;3.60;;;;;;;8.32;100.00;102501.56;5158224;28;20125;-70
2021/03/21 09:47:33;;;;;;;10.38;1.98;;;;;;;8.42;100.00;102503.59;5159341;28;20018;-70
2021/03/21 09:50:20;;;;;;;10.07;2.10;;;;;;;8.46;100.00;102503.28;5157208;28;20054;-70
2021/03/21 09:53:05;;;;;;;10.70;1.83;;;;;;;8.70;100.00;102499.78;5158276;28;20053;-70
2021/03/21 09:55:43;;;;;;;7.13;1.58;;;;;;;8.76;100.00;102502.84;5158779;28;20598;-70
2021/03/21 09:58:24;;;;;;;10.27;1.75;;;;;;;8.63;100.00;102506.53;5146031;28;20030;-70
2021/03/21 10:01:07;;;;;;;7.78;1.45;;;;;;;8.46;100.00;102505.09;5157026;28;20031;-69
2021/03/21 10:03:39;;;;;;;8.70;1.55;;;;;;;8.41;100.00;102494.72;5147059;28;20025;-69
2021/03/21 10:06:20;;;;;;;10.05;1.95;;;;;;;8.53;100.00;102507.22;5156894;28;20034;-69
2021/03/21 10:08:58;;;;;;;12.23;2.45;;;;;;;8.56;100.00;102511.47;5154978;28;20113;-70
2021/03/21 10:11:31;;;;;;;14.75;2.08;;;;;;;8.65;100.00;102499.25;5157177;28;20168;-71
2021/03/21 10:14:21;;;;;;;10.20;1.73;;;;;;;8.61;100.00;102519.16;5157693;28;20022;-69
2021/03/21 10:16:55;;;;;;;11.45;2.28;;;;;;;8.69;100.00;102517.66;5157634;28;20056;-69
2021/03/21 10:19:38;;;;;;;13.80;2.67;;;;;;;8.85;100.00;102514.69;5157761;28;20386;-69
2021/03/21 10:22:18;;;;;;;13.93;2.20;;;;;;;8.82;100.00;102518.44;5156292;28;20079;-70
2021/03/21 10:24:51;;;;;;;7.65;1.90;;;;;;;8.90;100.00;102514.34;5158052;28;20034;-69
2021/03/21 10:27:35;;;;;;;26.85;3.97;;;;;;;8.95;100.00;102518.38;5144913;28;20380;-69
2021/03/21 10:30:13;;;;;;;19.60;2.40;;;;;;;9.02;100.00;102524.97;5145323;28;20053;-70
2021/03/21 10:32:48;;;;;;;14.38;2.30;;;;;;;9.13;100.00;102513.44;5157461;28;20491;-68
2021/03/21 10:35:29;;;;;;;19.30;2.83;;;;;;;9.06;100.00;102509.53;5156081;28;20107;-70
2021/03/21 10:38:05;;;;;;;15.05;3.08;;;;;;;9.03;100.00;102502.56;5155735;28;20022;-69
2021/03/21 10:40:37;;;;;;;;;;;;;;;8.97;100.00;102508.41;5156959;28;20110;-69
2021/03/21 10:43:19;;;;;;;16.08;2.40;;;;;;;8.87;100.00;102504.72;5157676;28;20004;-69
2021/03/21 10:45:53;;;;;;;16.30;2.08;;;;;;;8.54;100.00;102516.94;5157677;28;20442;-69
2021/03/21 10:48:24;;;;;;;16.52;2.60;;;;;;;8.34;100.00;102508.66;5155172;28;20033;-70
2021/03/21 10:51:00;;;;;;;14.15;2.92;;;;;;;8.35;100.00;102515.69;5156058;28;20035;-71
2021/03/21 10:53:33;;;;;;;19.63;2.75;;;;;;;8.26;100.00;102510.03;5157319;28;20022;-71
2021/03/21 10:56:13;;;;;;;27.20;3.00;;;;;;;8.39;100.00;102511.88;5157787;28;20506;-69
2021/03/21 10:58:45;;;;;;;16.60;2.95;;;;;;;8.53;100.00;102509.91;5157398;28;20030;-71
2021/03/21 11:01:18;;;;;;;11.75;2.47;;;;;;;8.68;100.00;102513.25;5156804;28;20034;-70
2021/03/21 11:03:59;;;;;;;32.58;5.43;;;;;;;8.52;100.00;102512.66;5158017;28;20069;-70
2021/03/21 11:06:33;;;;;;;16.77;3.42;;;;;;;8.63;100.00;102514.56;5157766;28;20096;-71
2021/03/21 11:09:11;;;;;;;16.70;2.83;;;;;;;8.63;100.00;102519.91;5136399;28;20030;-71
2021/03/21 11:11:45;;;;;;;16.38;2.42;;;;;;;8.64;100.00;102518.97;5148121;28;20026;-70
2021/03/21 11:14:27;;;;;;;13.40;2.35;;;;;;;8.51;100.00;102501.13;5157504;28;20058;-73
2021/03/21 11:17:02;;;;;;;25.90;2.72;;;;;;;8.64;100.00;102521.63;5157826;28;20081;-71
2021/03/21 11:19:41;;;;;;;13.88;1.98;;;;;;;8.69;100.00;102523.00;5157154;28;20061;-69
2021/03/21 11:22:32;;;;;;;16.13;2.40;;;;;;;8.64;100.00;102526.97;5157099;28;20026;-69
2021/03/21 11:25:05;;;;;;;23.33;2.58;;;;;;;8.58;100.00;102525.59;5170740;28;20055;-73
2021/03/21 11:27:37;;;;;;;22.55;2.35;;;;;;;8.68;100.00;102523.94;5165087;28;20037;-70
2021/03/21 11:30:12;;;;;;;16.02;2.85;;;;;;;8.94;100.00;102514.00;5156889;28;20030;-69
2021/03/21 11:32:43;;;;;;;23.90;3.15;;;;;;;9.15;100.00;102513.34;5158118;28;20045;-69
2021/03/21 11:35:26;;;;;;;17.10;3.08;;;;;;;8.93;100.00;102506.06;5157761;28;20558;-69
2021/03/21 11:38:00;;;;;;;13.77;2.92;;;;;;;9.26;100.00;102502.66;5158832;28;20022;-69
2021/03/21 11:40:34;;;;;;;17.42;3.05;;;;;;;9.39;100.00;102503.44;5156432;28;20034;-69
2021/03/21 11:43:18;;;;;;;19.73;3.10;;;;;;;9.67;100.00;102502.13;5155725;28;20022;-69
2021/03/21 11:45:50;;;;;;;17.88;2.72;;;;;;;9.76;100.00;102500.56;5156717;28;20034;-69
2021/03/21 11:48:20;;;;;;;14.98;2.88;;;;;;;9.97;100.00;102509.59;5157547;28;20038;-70
2021/03/21 11:50:54;;;;;;;23.08;2.95;;;;;;;9.75;100.00;102514.94;5155727;28;20092;-69
2021/03/21 11:53:30;;;;;;;13.95;3.28;;;;;;;10.06;100.00;102508.00;5157100;28;20026;-69
2021/03/21 11:56:11;;;;;;;15.48;2.90;;;;;;;9.83;100.00;102504.47;5155692;28;20040;-69
2021/03/21 11:58:57;;;;;;;23.05;3.47;;;;;;;10.00;100.00;102512.03;5157421;28;20095;-69
2021/03/21 12:01:35;;;;;;;;;;;;;;;10.00;100.00;102503.13;5144950;28;20042;-69
2021/03/21 12:04:11;;;;;;;19.73;3.20;;;;;;;10.02;100.00;102495.81;5157160;28;19956;-70
2021/03/21 12:06:49;;;;;;;18.67;2.85;;;;;;;10.06;100.00;102502.66;5156700;28;20268;-70
2021/03/21 12:09:26;;;;;;;18.65;2.50;;;;;;;9.90;100.00;102497.66;5157127;28;20022;-70
2021/03/21 12:12:00;;;;;;;21.85;3.30;;;;;;;9.86;100.00;102496.19;5155244;28;20026;-70